Daily Tabular Data
[Select Refresh to Update]


4/22/19
Time         Wind Dir   Wind Spd  Wind Gust     Hum In   Humidity    Temp In       Temp  Raw Barom   Tot Rain Wind Chill Heat Ix In Heat Index  Dew Point  DailyRain   HourRain   RainRate
                            mph        mph          %          %         F         F         in         in         F         F         F         F         in         in      in/hr
12:00am            49          0          2         46         87       70.0       52.7      29.19      18.01       52.7       70.4       57.9       48.9       0.00       0.00      0.000
12:30am            68          2          3         47         87       69.6       52.8      29.18      18.01       52.8       70.1       58.0       49.0       0.00       0.00      0.000
1:00am            322          0          4         47         89       69.0       52.0      29.18      18.01       52.0       69.5       57.5       48.9       0.00       0.00      0.000
1:30am             57          0          3         47         88       68.7       53.1      29.18      18.01       53.1       69.2       58.4       49.6       0.00       0.00      0.000
2:00am             89          0          2         48         87       68.4       53.6      29.17      18.01       53.6       69.0       58.8       49.8       0.00       0.00      0.000
2:30am             67          0          4         48         88       68.1       52.9      29.16      18.01       52.9       68.7       58.2       49.4       0.00       0.00      0.000
3:00am             87          1          3         48         87       67.9       52.7      29.15      18.01       52.7       68.5       57.9       48.9       0.00       0.00      0.000
3:30am             74          3          3         48         86       67.6       52.8      29.15      18.01       52.8       68.2       57.9       48.7       0.00       0.00      0.000
4:00am             58          0          3         48         85       67.3       52.4      29.15      18.01       52.4       67.9       57.3       48.0       0.00       0.00      0.000
4:30am             19          0          2         48         86       67.1       51.8      29.16      18.01       51.8       67.7       56.9       47.8       0.00       0.00      0.000
5:00am             63          0          0         48         88       66.8       51.3      29.16      18.01       51.3       67.4       56.6       47.9       0.00       0.00      0.000
5:30am            346          0          0         48         90       66.5       50.9      29.15      18.01       50.9       67.1       56.5       48.1       0.00       0.00      0.000
6:00am             46          0          0         48         88       66.3       50.4      29.15      18.01       50.4       66.9       55.7       47.0       0.00       0.00      0.000
6:30am             46          0          0         48         89       66.1       50.0      29.16      18.01       50.0       66.7       55.5       46.9       0.00       0.00      0.000
7:00am             42          0          0         48         88       66.0       51.8      29.17      18.01       51.8       66.6       57.1       48.4       0.00       0.00      0.000
7:30am             44          0          0         49         84       66.0       56.6      29.17      18.01       56.6       66.7       61.4       51.8       0.00       0.00      0.000
8:00am            105          3          4         49         81       66.6       58.6      29.17      18.01       58.6       67.3       63.0       52.8       0.00       0.00      0.000
8:30am            192          0          4         47         78       68.2       58.2      29.17      18.01       58.2       68.7       62.2       51.4       0.00       0.00      0.000
9:00am            245          1          9         49         77       68.2       58.3      29.18      18.01       58.3       68.9       62.1       51.1       0.00       0.00      0.000
9:30am            269          2          6         49         72       69.1       60.7      29.18      18.01       60.7       69.8       63.9       51.6       0.00       0.00      0.000
10:00am           276          0          8         49         72       69.5       61.3      29.18      18.01       61.3       70.2       64.5       52.2       0.00       0.00      0.000
10:30am           181          1          5         49         68       69.8       64.3      29.18      18.01       64.3       70.5       67.0       53.5       0.00       0.00      0.000
11:30am           242          6         12         48         65       71.3       65.0      29.17      18.01       65.0       71.9       67.4       53.0       0.00       0.00      0.000
12:00pm           232          0          9         48         61       71.9       67.9      29.16      18.01       67.9       72.5       69.8       54.0       0.00       0.00      0.000
12:30pm           232          3          9         47         59       72.2       70.0      29.15      18.01       70.0       72.7       71.7       55.0       0.00       0.00      0.000
1:00pm            234          7         12         47         63       72.6       68.2      29.14      18.01       68.2       73.1       70.3       55.1       0.00       0.00      0.000
1:30pm            207          2         12         48         61       73.1       69.4      29.14      18.01       69.4       73.7       71.3       55.4       0.00       0.00      0.000
2:00pm            246         14         15         47         63       73.2       68.3      29.14      18.01       68.2       73.7       70.4       55.2       0.00       0.00      0.000
2:30pm            234          4         14         47         62       73.5       69.4      29.13      18.01       69.4       74.0       71.4       55.8       0.00       0.00      0.000
3:00pm            236          4         12         47         59       73.9       70.8      29.12      18.01       70.8       74.4       72.5       55.8       0.00       0.00      0.000
3:30pm            242          9         11         46         58       74.4       70.3      29.11      18.01       70.3       74.8       71.9       54.8       0.00       0.00      0.000
4:00pm            246          4         12         46         57       74.8       70.8      29.10      18.01       70.8       75.2       72.3       54.8       0.00       0.00      0.000
4:30pm            256          4         10         45         58       75.2       69.9      29.10      18.01       69.9       75.5       71.5       54.5       0.00       0.00      0.000
5:00pm            243          5         13         45         61       75.1       69.2      29.09      18.01       69.2       75.4       71.1       55.2       0.00       0.00      0.000
5:30pm            238          2         10         46         63       75.2       69.2      29.09      18.01       69.2       75.6       71.3       56.1       0.00       0.00      0.000
6:00pm            221          0         10         47         62       74.9       69.9      29.09      18.01       69.9       75.4       71.9       56.3       0.00       0.00      0.000
6:30pm            220          0          4         46         63       75.1       69.2      29.09      18.01       69.2       75.5       71.3       56.1       0.00       0.00      0.000
7:00pm            179          2          4         47         63       72.1       68.4      29.09      18.01       68.4       72.6       70.5       55.3       0.00       0.00      0.000
7:30pm            173          1          6         50         70       71.7       66.0      29.10      18.01       66.0       72.5       69.0       55.9       0.00       0.00      0.000
8:00pm            117          0          8         48         73       72.7       63.3      29.10      18.01       63.3       73.3       66.6       54.5       0.00       0.00      0.000
8:30pm            171          1         10         48         83       72.6       61.0      29.12      18.01       61.0       73.2       65.6       55.8       0.00       0.00      0.000
9:00pm            105          8         12         49         83       72.0       59.4      29.13      18.01       58.2       72.7       64.0       54.2       0.00       0.00      0.000
9:30pm             98          0         10         50         85       71.2       58.9      29.14      18.01       58.9       72.0       63.8       54.4       0.00       0.00      0.000
10:00pm           168          0          4         49         86       72.1       58.5      29.14      18.01       58.5       72.8       63.6       54.3       0.00       0.00      0.000
10:30pm           166          0          0         48         86       72.5       57.7      29.14      18.01       57.7       73.1       62.8       53.5       0.00       0.00      0.000
11:00pm           187          0          0         48         89       72.3       56.9      29.14      18.01       56.9       72.9       62.4       53.7       0.00       0.00      0.000
11:30pm           132          0          0         49         90       71.9       56.6      29.14      18.01       56.6       72.6       62.2       53.7       0.00       0.00      0.000